Terminal Aerodrome Forecast
Issued by NWS

Home | Current Version | Previous Version | Text Only | Print | Product List | Glossary On
Versions: 1 2 3 4 5 6 7 8 9 10 11 12 13 14 15 16
000
FTUS46 KSEW 250523
TAFCLM
TAF
KCLM 250523Z 2506/2606 22006KT P6SM VCSH SCT022 BKN050
      TEMPO 2506/2508 BKN022 BKN050
     FM250800 26009KT P6SM VCSH SCT011 BKN022 OVC050
      TEMPO 2508/2512 5SM SHRA BKN011 OVC030
     FM251200 26009KT P6SM SCT028 BKN050
     FM251800 30008KT P6SM VCSH SCT050 SCT200
     FM260300 25004KT P6SM BKN200=

USA.gov is the U.S. government's official web portal to all federal, state and local government web resources and services.